sensor_id;sensor_type;location;lat;lon;timestamp;temperature;humidity
4097;DHT22;2062;50.694;7.246;2023-07-13T00:01:28;18.80;34.80
4097;DHT22;2062;50.694;7.246;2023-07-13T00:03:55;18.80;35.00
4097;DHT22;2062;50.694;7.246;2023-07-13T00:06:22;18.70;35.00
4097;DHT22;2062;50.694;7.246;2023-07-13T00:08:49;18.70;35.10
4097;DHT22;2062;50.694;7.246;2023-07-13T00:11:16;18.70;35.20
4097;DHT22;2062;50.694;7.246;2023-07-13T00:13:44;18.60;35.30
4097;DHT22;2062;50.694;7.246;2023-07-13T00:16:13;18.60;35.40
4097;DHT22;2062;50.694;7.246;2023-07-13T00:18:40;18.60;35.40
4097;DHT22;2062;50.694;7.246;2023-07-13T00:21:07;18.50;35.50
4097;DHT22;2062;50.694;7.246;2023-07-13T00:23:36;18.50;35.60
4097;DHT22;2062;50.694;7.246;2023-07-13T00:26:04;18.40;35.50
4097;DHT22;2062;50.694;7.246;2023-07-13T00:28:31;18.40;35.80
4097;DHT22;2062;50.694;7.246;2023-07-13T00:30:58;18.40;35.70
4097;DHT22;2062;50.694;7.246;2023-07-13T00:33:27;18.30;35.90
4097;DHT22;2062;50.694;7.246;2023-07-13T00:35:55;18.30;35.90
4097;DHT22;2062;50.694;7.246;2023-07-13T00:38:22;18.30;36.10
4097;DHT22;2062;50.694;7.246;2023-07-13T00:40:49;18.20;36.10
4097;DHT22;2062;50.694;7.246;2023-07-13T00:43:19;18.20;36.20
4097;DHT22;2062;50.694;7.246;2023-07-13T00:46:18;18.10;36.20
4097;DHT22;2062;50.694;7.246;2023-07-13T00:48:48;18.10;36.40
4097;DHT22;2062;50.694;7.246;2023-07-13T00:51:19;18.10;36.50
4097;DHT22;2062;50.694;7.246;2023-07-13T00:53:47;18.10;36.60
4097;DHT22;2062;50.694;7.246;2023-07-13T00:56:14;18.00;36.30
4097;DHT22;2062;50.694;7.246;2023-07-13T00:58:41;18.00;36.50
4097;DHT22;2062;50.694;7.246;2023-07-13T01:01:08;17.90;36.60
4097;DHT22;2062;50.694;7.246;2023-07-13T01:03:35;17.90;36.70
4097;DHT22;2062;50.694;7.246;2023-07-13T01:06:04;17.90;36.80
4097;DHT22;2062;50.694;7.246;2023-07-13T01:08:31;17.80;36.70
4097;DHT22;2062;50.694;7.246;2023-07-13T01:10:58;17.80;36.90
4097;DHT22;2062;50.694;7.246;2023-07-13T01:13:25;17.80;37.10
4097;DHT22;2062;50.694;7.246;2023-07-13T01:15:53;17.80;37.00
4097;DHT22;2062;50.694;7.246;2023-07-13T01:18:25;17.80;37.00
4097;DHT22;2062;50.694;7.246;2023-07-13T01:20:55;17.70;37.20
4097;DHT22;2062;50.694;7.246;2023-07-13T01:23:22;17.70;37.20
4097;DHT22;2062;50.694;7.246;2023-07-13T01:25:50;17.70;37.30
4097;DHT22;2062;50.694;7.246;2023-07-13T01:28:17;17.70;37.40
4097;DHT22;2062;50.694;7.246;2023-07-13T01:30:46;17.70;37.50
4097;DHT22;2062;50.694;7.246;2023-07-13T01:33:14;17.60;37.40
4097;DHT22;2062;50.694;7.246;2023-07-13T01:35:42;17.60;37.60
4097;DHT22;2062;50.694;7.246;2023-07-13T01:38:11;17.60;37.70
4097;DHT22;2062;50.694;7.246;2023-07-13T01:40:38;17.60;37.80
4097;DHT22;2062;50.694;7.246;2023-07-13T01:43:05;17.50;37.70
4097;DHT22;2062;50.694;7.246;2023-07-13T01:45:32;17.70;38.00
4097;DHT22;2062;50.694;7.246;2023-07-13T01:47:59;17.50;37.80
4097;DHT22;2062;50.694;7.246;2023-07-13T01:50:26;17.50;37.70
4097;DHT22;2062;50.694;7.246;2023-07-13T01:52:53;17.50;38.20
4097;DHT22;2062;50.694;7.246;2023-07-13T01:55:22;17.50;38.10
4097;DHT22;2062;50.694;7.246;2023-07-13T01:57:49;17.40;38.00
4097;DHT22;2062;50.694;7.246;2023-07-13T02:00:16;17.40;37.80
4097;DHT22;2062;50.694;7.246;2023-07-13T02:02:43;17.40;38.20
4097;DHT22;2062;50.694;7.246;2023-07-13T02:05:10;17.40;38.30
4097;DHT22;2062;50.694;7.246;2023-07-13T02:07:37;17.40;38.30
4097;DHT22;2062;50.694;7.246;2023-07-13T02:10:05;17.30;38.40
4097;DHT22;2062;50.694;7.246;2023-07-13T02:12:33;17.30;38.50
4097;DHT22;2062;50.694;7.246;2023-07-13T02:15:01;17.30;38.80
4097;DHT22;2062;50.694;7.246;2023-07-13T02:17:28;17.20;38.40
4097;DHT22;2062;50.694;7.246;2023-07-13T02:19:55;17.20;38.60
4097;DHT22;2062;50.694;7.246;2023-07-13T02:22:22;17.20;38.90
4097;DHT22;2062;50.694;7.246;2023-07-13T02:24:49;17.20;38.70
4097;DHT22;2062;50.694;7.246;2023-07-13T02:27:16;17.20;38.90
4097;DHT22;2062;50.694;7.246;2023-07-13T02:29:44;17.10;38.70
4097;DHT22;2062;50.694;7.246;2023-07-13T02:32:11;17.20;38.70
4097;DHT22;2062;50.694;7.246;2023-07-13T02:34:40;17.10;38.90
4097;DHT22;2062;50.694;7.246;2023-07-13T02:37:07;17.10;39.10
4097;DHT22;2062;50.694;7.246;2023-07-13T02:39:33;17.00;39.00
4097;DHT22;2062;50.694;7.246;2023-07-13T02:42:00;17.10;39.20
4097;DHT22;2062;50.694;7.246;2023-07-13T02:44:27;17.00;39.10
4097;DHT22;2062;50.694;7.246;2023-07-13T02:46:55;17.00;39.00
4097;DHT22;2062;50.694;7.246;2023-07-13T02:49:22;17.00;39.20
4097;DHT22;2062;50.694;7.246;2023-07-13T02:51:49;17.00;39.30
4097;DHT22;2062;50.694;7.246;2023-07-13T02:54:16;16.90;39.50
4097;DHT22;2062;50.694;7.246;2023-07-13T02:56:42;16.90;39.30
4097;DHT22;2062;50.694;7.246;2023-07-13T02:59:10;16.90;39.50
4097;DHT22;2062;50.694;7.246;2023-07-13T03:01:37;16.90;39.50
4097;DHT22;2062;50.694;7.246;2023-07-13T03:04:05;16.90;39.40
4097;DHT22;2062;50.694;7.246;2023-07-13T03:06:32;16.90;39.60
4097;DHT22;2062;50.694;7.246;2023-07-13T03:08:59;16.90;39.40
4097;DHT22;2062;50.694;7.246;2023-07-13T03:11:26;16.90;39.60
4097;DHT22;2062;50.694;7.246;2023-07-13T03:13:53;16.90;39.60
4097;DHT22;2062;50.694;7.246;2023-07-13T03:16:20;16.90;39.70
4097;DHT22;2062;50.694;7.246;2023-07-13T03:18:47;16.90;39.60
4097;DHT22;2062;50.694;7.246;2023-07-13T03:21:16;16.90;39.80
4097;DHT22;2062;50.694;7.246;2023-07-13T03:23:43;16.90;39.70
4097;DHT22;2062;50.694;7.246;2023-07-13T03:26:13;16.90;39.90
4097;DHT22;2062;50.694;7.246;2023-07-13T03:28:40;16.80;39.90
4097;DHT22;2062;50.694;7.246;2023-07-13T03:31:10;16.80;40.00
4097;DHT22;2062;50.694;7.246;2023-07-13T03:33:37;16.80;39.70
4097;DHT22;2062;50.694;7.246;2023-07-13T03:36:05;16.80;40.20
4097;DHT22;2062;50.694;7.246;2023-07-13T03:38:35;16.80;39.90
4097;DHT22;2062;50.694;7.246;2023-07-13T03:41:02;16.80;40.10
4097;DHT22;2062;50.694;7.246;2023-07-13T03:43:28;16.80;40.00
4097;DHT22;2062;50.694;7.246;2023-07-13T03:45:55;16.80;40.00
4097;DHT22;2062;50.694;7.246;2023-07-13T03:48:22;16.80;39.90
4097;DHT22;2062;50.694;7.246;2023-07-13T03:50:49;16.80;40.10
4097;DHT22;2062;50.694;7.246;2023-07-13T03:53:16;16.80;40.10
4097;DHT22;2062;50.694;7.246;2023-07-13T03:55:45;16.80;40.30
4097;DHT22;2062;50.694;7.246;2023-07-13T03:58:34;16.80;40.10
4097;DHT22;2062;50.694;7.246;2023-07-13T04:01:03;16.80;40.50
4097;DHT22;2062;50.694;7.246;2023-07-13T04:03:31;16.80;40.30
4097;DHT22;2062;50.694;7.246;2023-07-13T04:05:59;16.80;40.40
4097;DHT22;2062;50.694;7.246;2023-07-13T04:08:27;16.80;40.50
4097;DHT22;2062;50.694;7.246;2023-07-13T04:10:55;16.80;40.60
4097;DHT22;2062;50.694;7.246;2023-07-13T04:13:23;16.80;40.80
4097;DHT22;2062;50.694;7.246;2023-07-13T04:15:50;16.80;40.50
4097;DHT22;2062;50.694;7.246;2023-07-13T04:18:17;16.80;40.50
4097;DHT22;2062;50.694;7.246;2023-07-13T04:20:45;16.80;40.70
4097;DHT22;2062;50.694;7.246;2023-07-13T04:23:11;16.80;40.70
4097;DHT22;2062;50.694;7.246;2023-07-13T04:25:38;16.80;40.80
4097;DHT22;2062;50.694;7.246;2023-07-13T04:28:06;16.80;41.00
4097;DHT22;2062;50.694;7.246;2023-07-13T04:30:33;16.80;41.20
4097;DHT22;2062;50.694;7.246;2023-07-13T04:33:00;16.80;41.00
4097;DHT22;2062;50.694;7.246;2023-07-13T04:35:27;16.80;41.30
4097;DHT22;2062;50.694;7.246;2023-07-13T04:37:54;16.80;41.10
4097;DHT22;2062;50.694;7.246;2023-07-13T04:40:21;16.80;41.00
4097;DHT22;2062;50.694;7.246;2023-07-13T04:42:47;16.80;41.40
4097;DHT22;2062;50.694;7.246;2023-07-13T04:45:16;16.80;41.50
4097;DHT22;2062;50.694;7.246;2023-07-13T04:47:43;16.70;41.40
4097;DHT22;2062;50.694;7.246;2023-07-13T04:50:12;16.70;41.60
4097;DHT22;2062;50.694;7.246;2023-07-13T04:52:40;16.70;41.70
4097;DHT22;2062;50.694;7.246;2023-07-13T04:55:08;16.70;41.90
4097;DHT22;2062;50.694;7.246;2023-07-13T04:57:35;16.70;42.00
4097;DHT22;2062;50.694;7.246;2023-07-13T05:00:02;16.70;42.70
4097;DHT22;2062;50.694;7.246;2023-07-13T05:02:32;16.70;42.00
4097;DHT22;2062;50.694;7.246;2023-07-13T05:04:59;16.70;41.90
4097;DHT22;2062;50.694;7.246;2023-07-13T05:07:26;16.70;41.90
4097;DHT22;2062;50.694;7.246;2023-07-13T05:09:53;16.70;42.00
4097;DHT22;2062;50.694;7.246;2023-07-13T05:12:20;16.70;42.20
4097;DHT22;2062;50.694;7.246;2023-07-13T05:14:46;16.70;42.10
4097;DHT22;2062;50.694;7.246;2023-07-13T05:17:14;16.70;42.30
4097;DHT22;2062;50.694;7.246;2023-07-13T05:19:43;16.70;42.40
4097;DHT22;2062;50.694;7.246;2023-07-13T05:22:10;16.70;42.40
4097;DHT22;2062;50.694;7.246;2023-07-13T05:24:37;16.70;43.30
4097;DHT22;2062;50.694;7.246;2023-07-13T05:27:05;16.70;42.70
4097;DHT22;2062;50.694;7.246;2023-07-13T05:29:31;16.70;42.60
4097;DHT22;2062;50.694;7.246;2023-07-13T05:31:58;16.70;42.80
4097;DHT22;2062;50.694;7.246;2023-07-13T05:34:25;16.70;42.70
4097;DHT22;2062;50.694;7.246;2023-07-13T05:36:53;16.80;42.80
4097;DHT22;2062;50.694;7.246;2023-07-13T05:39:20;16.80;42.60
4097;DHT22;2062;50.694;7.246;2023-07-13T05:41:47;16.80;42.60
4097;DHT22;2062;50.694;7.246;2023-07-13T05:44:14;16.90;42.80
4097;DHT22;2062;50.694;7.246;2023-07-13T05:46:42;17.00;43.10
4097;DHT22;2062;50.694;7.246;2023-07-13T05:49:10;17.10;43.00
4097;DHT22;2062;50.694;7.246;2023-07-13T05:51:38;17.30;43.00
4097;DHT22;2062;50.694;7.246;2023-07-13T05:54:07;17.40;42.90
4097;DHT22;2062;50.694;7.246;2023-07-13T05:56:35;17.60;43.00
4097;DHT22;2062;50.694;7.246;2023-07-13T05:59:01;17.70;43.10
4097;DHT22;2062;50.694;7.246;2023-07-13T06:01:30;17.80;43.00
4097;DHT22;2062;50.694;7.246;2023-07-13T06:03:57;17.90;42.90
4097;DHT22;2062;50.694;7.246;2023-07-13T06:06:24;18.00;43.10
4097;DHT22;2062;50.694;7.246;2023-07-13T06:08:50;18.00;42.80
4097;DHT22;2062;50.694;7.246;2023-07-13T06:11:20;18.10;43.00
4097;DHT22;2062;50.694;7.246;2023-07-13T06:13:48;18.20;42.90
4097;DHT22;2062;50.694;7.246;2023-07-13T06:16:15;18.30;43.40
4097;DHT22;2062;50.694;7.246;2023-07-13T06:18:42;18.30;43.10
4097;DHT22;2062;50.694;7.246;2023-07-13T06:21:13;18.40;43.10
4097;DHT22;2062;50.694;7.246;2023-07-13T06:23:40;18.60;43.10
4097;DHT22;2062;50.694;7.246;2023-07-13T06:26:07;18.60;43.00
4097;DHT22;2062;50.694;7.246;2023-07-13T06:28:37;18.70;43.00
4097;DHT22;2062;50.694;7.246;2023-07-13T06:31:06;18.80;43.00
4097;DHT22;2062;50.694;7.246;2023-07-13T06:33:33;18.90;43.00
4097;DHT22;2062;50.694;7.246;2023-07-13T06:36:01;18.90;42.80
4097;DHT22;2062;50.694;7.246;2023-07-13T06:38:28;18.90;42.70
4097;DHT22;2062;50.694;7.246;2023-07-13T06:40:55;19.00;42.50
4097;DHT22;2062;50.694;7.246;2023-07-13T06:43:21;19.00;42.60
4097;DHT22;2062;50.694;7.246;2023-07-13T06:45:54;19.00;42.50
4097;DHT22;2062;50.694;7.246;2023-07-13T06:48:21;19.00;42.50
4097;DHT22;2062;50.694;7.246;2023-07-13T06:50:48;19.10;42.60
4097;DHT22;2062;50.694;7.246;2023-07-13T06:53:18;19.10;42.60
4097;DHT22;2062;50.694;7.246;2023-07-13T06:55:45;19.10;42.60
4097;DHT22;2062;50.694;7.246;2023-07-13T06:58:12;19.10;42.70
4097;DHT22;2062;50.694;7.246;2023-07-13T07:00:39;19.10;42.70
4097;DHT22;2062;50.694;7.246;2023-07-13T07:03:08;19.20;42.80
4097;DHT22;2062;50.694;7.246;2023-07-13T07:05:34;19.20;42.60
4097;DHT22;2062;50.694;7.246;2023-07-13T07:08:01;19.20;42.50
4097;DHT22;2062;50.694;7.246;2023-07-13T07:10:30;19.30;42.50
4097;DHT22;2062;50.694;7.246;2023-07-13T07:12:57;19.20;43.00
4097;DHT22;2062;50.694;7.246;2023-07-13T07:15:25;19.30;42.50
4097;DHT22;2062;50.694;7.246;2023-07-13T07:17:52;19.40;42.60
4097;DHT22;2062;50.694;7.246;2023-07-13T07:20:21;19.50;43.00
4097;DHT22;2062;50.694;7.246;2023-07-13T07:22:48;19.60;43.10
4097;DHT22;2062;50.694;7.246;2023-07-13T07:25:14;19.80;43.10
4097;DHT22;2062;50.694;7.246;2023-07-13T07:27:41;20.00;43.10
4097;DHT22;2062;50.694;7.246;2023-07-13T07:30:09;20.30;42.80
4097;DHT22;2062;50.694;7.246;2023-07-13T07:32:36;20.60;42.50
4097;DHT22;2062;50.694;7.246;2023-07-13T07:35:04;20.90;42.20
4097;DHT22;2062;50.694;7.246;2023-07-13T07:37:32;21.20;42.00
4097;DHT22;2062;50.694;7.246;2023-07-13T07:39:59;21.40;41.60
4097;DHT22;2062;50.694;7.246;2023-07-13T07:42:25;21.70;41.30
4097;DHT22;2062;50.694;7.246;2023-07-13T07:44:52;21.90;40.90
4097;DHT22;2062;50.694;7.246;2023-07-13T07:47:19;22.10;40.30
4097;DHT22;2062;50.694;7.246;2023-07-13T07:49:46;22.30;40.00
4097;DHT22;2062;50.694;7.246;2023-07-13T07:52:13;22.50;39.60
4097;DHT22;2062;50.694;7.246;2023-07-13T07:54:41;22.70;39.50
4097;DHT22;2062;50.694;7.246;2023-07-13T07:57:08;23.00;39.20
4097;DHT22;2062;50.694;7.246;2023-07-13T07:59:36;23.10;38.70
4097;DHT22;2062;50.694;7.246;2023-07-13T08:02:03;23.30;38.40
4097;DHT22;2062;50.694;7.246;2023-07-13T08:04:30;23.40;37.90
4097;DHT22;2062;50.694;7.246;2023-07-13T08:06:57;23.60;37.60
4097;DHT22;2062;50.694;7.246;2023-07-13T08:09:24;23.70;37.50
4097;DHT22;2062;50.694;7.246;2023-07-13T08:11:52;23.80;37.00
4097;DHT22;2062;50.694;7.246;2023-07-13T08:14:20;24.00;36.50
4097;DHT22;2062;50.694;7.246;2023-07-13T08:16:47;24.00;36.10
4097;DHT22;2062;50.694;7.246;2023-07-13T08:19:13;24.10;36.20
4097;DHT22;2062;50.694;7.246;2023-07-13T08:21:40;24.20;36.00
4097;DHT22;2062;50.694;7.246;2023-07-13T08:24:08;24.40;35.90
4097;DHT22;2062;50.694;7.246;2023-07-13T08:26:35;24.40;36.00
4097;DHT22;2062;50.694;7.246;2023-07-13T08:29:03;24.60;35.70
4097;DHT22;2062;50.694;7.246;2023-07-13T08:31:30;24.70;35.60
4097;DHT22;2062;50.694;7.246;2023-07-13T08:33:57;24.80;35.20
4097;DHT22;2062;50.694;7.246;2023-07-13T08:36:25;24.90;35.10
4097;DHT22;2062;50.694;7.246;2023-07-13T08:38:52;25.00;35.40
4097;DHT22;2062;50.694;7.246;2023-07-13T08:41:20;25.10;34.80
4097;DHT22;2062;50.694;7.246;2023-07-13T08:43:49;25.20;34.40
4097;DHT22;2062;50.694;7.246;2023-07-13T08:46:20;25.30;34.30
4097;DHT22;2062;50.694;7.246;2023-07-13T08:48:52;25.40;34.20
4097;DHT22;2062;50.694;7.246;2023-07-13T08:51:27;25.50;33.60
4097;DHT22;2062;50.694;7.246;2023-07-13T08:53:59;25.60;33.00
4097;DHT22;2062;50.694;7.246;2023-07-13T08:56:28;25.70;32.70
4097;DHT22;2062;50.694;7.246;2023-07-13T08:58:57;25.80;32.70
4097;DHT22;2062;50.694;7.246;2023-07-13T09:01:31;25.90;32.60
4097;DHT22;2062;50.694;7.246;2023-07-13T09:04:04;26.00;32.70
4097;DHT22;2062;50.694;7.246;2023-07-13T09:06:39;26.00;32.70
4097;DHT22;2062;50.694;7.246;2023-07-13T09:09:14;26.10;32.30
4097;DHT22;2062;50.694;7.246;2023-07-13T09:11:49;26.10;32.00
4097;DHT22;2062;50.694;7.246;2023-07-13T09:14:34;26.10;31.80
4097;DHT22;2062;50.694;7.246;2023-07-13T09:17:12;26.10;31.10
4097;DHT22;2062;50.694;7.246;2023-07-13T09:19:40;26.10;31.60
4097;DHT22;2062;50.694;7.246;2023-07-13T09:22:12;26.10;31.70
4097;DHT22;2062;50.694;7.246;2023-07-13T09:24:50;26.10;31.40
4097;DHT22;2062;50.694;7.246;2023-07-13T09:27:21;26.20;31.40
4097;DHT22;2062;50.694;7.246;2023-07-13T09:30:01;26.20;31.00
4097;DHT22;2062;50.694;7.246;2023-07-13T09:32:31;26.20;30.30
4097;DHT22;2062;50.694;7.246;2023-07-13T09:34:59;26.30;30.10
4097;DHT22;2062;50.694;7.246;2023-07-13T09:37:30;26.30;30.00
4097;DHT22;2062;50.694;7.246;2023-07-13T09:39:59;26.30;29.60
4097;DHT22;2062;50.694;7.246;2023-07-13T09:42:31;26.40;29.30
4097;DHT22;2062;50.694;7.246;2023-07-13T09:45:00;26.30;30.40
4097;DHT22;2062;50.694;7.246;2023-07-13T09:47:31;26.30;29.80
4097;DHT22;2062;50.694;7.246;2023-07-13T09:49:59;26.30;29.70
4097;DHT22;2062;50.694;7.246;2023-07-13T09:52:27;26.40;30.20
4097;DHT22;2062;50.694;7.246;2023-07-13T09:54:55;26.40;30.10
4097;DHT22;2062;50.694;7.246;2023-07-13T09:57:27;26.50;30.00
4097;DHT22;2062;50.694;7.246;2023-07-13T09:59:55;26.50;29.70
4097;DHT22;2062;50.694;7.246;2023-07-13T10:02:26;26.50;29.50
4097;DHT22;2062;50.694;7.246;2023-07-13T10:04:59;26.50;29.50
4097;DHT22;2062;50.694;7.246;2023-07-13T10:07:28;26.50;29.00
4097;DHT22;2062;50.694;7.246;2023-07-13T10:09:55;26.40;29.00
4097;DHT22;2062;50.694;7.246;2023-07-13T10:12:23;26.40;29.00
4097;DHT22;2062;50.694;7.246;2023-07-13T10:14:52;26.30;29.10
4097;DHT22;2062;50.694;7.246;2023-07-13T10:17:26;26.20;29.40
4097;DHT22;2062;50.694;7.246;2023-07-13T10:19:59;26.10;29.20
4097;DHT22;2062;50.694;7.246;2023-07-13T10:22:35;26.00;29.50
4097;DHT22;2062;50.694;7.246;2023-07-13T10:25:19;26.00;29.50
4097;DHT22;2062;50.694;7.246;2023-07-13T10:27:50;26.00;29.30
4097;DHT22;2062;50.694;7.246;2023-07-13T10:30:20;26.00;29.30
4097;DHT22;2062;50.694;7.246;2023-07-13T10:32:48;26.00;29.10
4097;DHT22;2062;50.694;7.246;2023-07-13T10:35:18;26.00;29.30
4097;DHT22;2062;50.694;7.246;2023-07-13T10:37:49;25.90;28.60
4097;DHT22;2062;50.694;7.246;2023-07-13T10:40:20;25.80;28.30
4097;DHT22;2062;50.694;7.246;2023-07-13T10:42:50;25.70;29.00
4097;DHT22;2062;50.694;7.246;2023-07-13T10:45:20;25.60;28.70
4097;DHT22;2062;50.694;7.246;2023-07-13T10:47:48;25.60;28.90
4097;DHT22;2062;50.694;7.246;2023-07-13T10:50:21;25.60;29.00
4097;DHT22;2062;50.694;7.246;2023-07-13T10:52:50;25.50;29.00
4097;DHT22;2062;50.694;7.246;2023-07-13T10:55:33;25.60;29.30
4097;DHT22;2062;50.694;7.246;2023-07-13T10:58:02;25.60;29.60
4097;DHT22;2062;50.694;7.246;2023-07-13T11:00:32;25.60;29.60
4097;DHT22;2062;50.694;7.246;2023-07-13T11:03:14;25.60;29.70
4097;DHT22;2062;50.694;7.246;2023-07-13T11:05:42;25.60;30.00
4097;DHT22;2062;50.694;7.246;2023-07-13T11:08:16;25.60;30.10
4097;DHT22;2062;50.694;7.246;2023-07-13T11:10:49;25.70;30.60
4097;DHT22;2062;50.694;7.246;2023-07-13T11:13:38;25.70;30.00
4097;DHT22;2062;50.694;7.246;2023-07-13T11:16:41;25.70;30.00
4097;DHT22;2062;50.694;7.246;2023-07-13T11:19:26;25.80;29.90
4097;DHT22;2062;50.694;7.246;2023-07-13T11:22:15;25.90;30.40
4097;DHT22;2062;50.694;7.246;2023-07-13T11:24:57;25.90;30.50
4097;DHT22;2062;50.694;7.246;2023-07-13T11:27:35;25.90;29.60
4097;DHT22;2062;50.694;7.246;2023-07-13T11:30:22;25.90;29.00
4097;DHT22;2062;50.694;7.246;2023-07-13T11:32:51;25.90;28.00
4097;DHT22;2062;50.694;7.246;2023-07-13T11:35:23;25.80;28.20
4097;DHT22;2062;50.694;7.246;2023-07-13T11:37:54;25.70;27.70
4097;DHT22;2062;50.694;7.246;2023-07-13T11:40:22;25.70;27.60
4097;DHT22;2062;50.694;7.246;2023-07-13T11:42:51;25.60;27.50
4097;DHT22;2062;50.694;7.246;2023-07-13T11:45:20;25.60;27.50
4097;DHT22;2062;50.694;7.246;2023-07-13T11:47:48;25.40;27.60
4097;DHT22;2062;50.694;7.246;2023-07-13T11:50:20;25.40;27.50
4097;DHT22;2062;50.694;7.246;2023-07-13T11:52:48;25.30;27.70
4097;DHT22;2062;50.694;7.246;2023-07-13T11:55:19;25.20;27.90
4097;DHT22;2062;50.694;7.246;2023-07-13T11:57:50;25.20;28.00
4097;DHT22;2062;50.694;7.246;2023-07-13T12:00:21;25.10;28.90
4097;DHT22;2062;50.694;7.246;2023-07-13T12:02:51;25.10;28.40
4097;DHT22;2062;50.694;7.246;2023-07-13T12:05:19;25.00;28.40
4097;DHT22;2062;50.694;7.246;2023-07-13T12:07:47;25.00;28.50
4097;DHT22;2062;50.694;7.246;2023-07-13T12:10:20;24.90;28.60
4097;DHT22;2062;50.694;7.246;2023-07-13T12:12:51;25.00;28.60
4097;DHT22;2062;50.694;7.246;2023-07-13T12:15:18;24.90;28.60
4097;DHT22;2062;50.694;7.246;2023-07-13T12:17:46;24.90;28.60
4097;DHT22;2062;50.694;7.246;2023-07-13T12:20:20;24.90;28.60
4097;DHT22;2062;50.694;7.246;2023-07-13T12:22:47;24.90;28.30
4097;DHT22;2062;50.694;7.246;2023-07-13T12:25:15;24.80;28.40
4097;DHT22;2062;50.694;7.246;2023-07-13T12:27:47;24.80;28.40
4097;DHT22;2062;50.694;7.246;2023-07-13T12:30:25;24.80;28.40
4097;DHT22;2062;50.694;7.246;2023-07-13T12:32:56;24.80;28.60
4097;DHT22;2062;50.694;7.246;2023-07-13T12:35:25;24.70;28.70
4097;DHT22;2062;50.694;7.246;2023-07-13T12:37:52;24.70;28.80
4097;DHT22;2062;50.694;7.246;2023-07-13T12:40:21;24.70;28.80
4097;DHT22;2062;50.694;7.246;2023-07-13T12:42:54;24.60;28.70
4097;DHT22;2062;50.694;7.246;2023-07-13T12:45:24;24.60;28.90
4097;DHT22;2062;50.694;7.246;2023-07-13T12:47:54;24.60;28.80
4097;DHT22;2062;50.694;7.246;2023-07-13T12:50:29;24.50;28.80
4097;DHT22;2062;50.694;7.246;2023-07-13T12:53:02;24.50;28.90
4097;DHT22;2062;50.694;7.246;2023-07-13T12:55:30;24.50;28.90
4097;DHT22;2062;50.694;7.246;2023-07-13T12:58:03;24.50;29.00
4097;DHT22;2062;50.694;7.246;2023-07-13T13:00:33;24.50;29.20
4097;DHT22;2062;50.694;7.246;2023-07-13T13:03:03;24.50;29.20
4097;DHT22;2062;50.694;7.246;2023-07-13T13:05:31;24.40;29.50
4097;DHT22;2062;50.694;7.246;2023-07-13T13:07:59;24.40;29.70
4097;DHT22;2062;50.694;7.246;2023-07-13T13:10:26;24.40;30.10
4097;DHT22;2062;50.694;7.246;2023-07-13T13:12:53;24.40;30.20
4097;DHT22;2062;50.694;7.246;2023-07-13T13:15:21;24.40;30.10
4097;DHT22;2062;50.694;7.246;2023-07-13T13:17:49;24.40;30.30
4097;DHT22;2062;50.694;7.246;2023-07-13T13:20:18;24.40;30.30
4097;DHT22;2062;50.694;7.246;2023-07-13T13:22:44;24.40;30.40
4097;DHT22;2062;50.694;7.246;2023-07-13T13:25:12;24.40;30.60
4097;DHT22;2062;50.694;7.246;2023-07-13T13:27:39;24.40;30.60
4097;DHT22;2062;50.694;7.246;2023-07-13T13:30:10;24.40;30.50
4097;DHT22;2062;50.694;7.246;2023-07-13T13:32:40;24.40;30.60
4097;DHT22;2062;50.694;7.246;2023-07-13T13:35:13;24.40;30.20
4097;DHT22;2062;50.694;7.246;2023-07-13T13:37:40;24.40;30.20
4097;DHT22;2062;50.694;7.246;2023-07-13T13:40:14;24.40;30.40
4097;DHT22;2062;50.694;7.246;2023-07-13T13:42:41;24.40;30.20
4097;DHT22;2062;50.694;7.246;2023-07-13T13:45:09;24.40;30.20
4097;DHT22;2062;50.694;7.246;2023-07-13T13:47:39;24.40;30.00
4097;DHT22;2062;50.694;7.246;2023-07-13T13:50:14;24.40;30.10
4097;DHT22;2062;50.694;7.246;2023-07-13T13:52:41;24.40;30.10
4097;DHT22;2062;50.694;7.246;2023-07-13T13:55:13;24.40;30.00
4097;DHT22;2062;50.694;7.246;2023-07-13T13:57:39;24.40;30.20
4097;DHT22;2062;50.694;7.246;2023-07-13T14:00:09;24.40;29.80
4097;DHT22;2062;50.694;7.246;2023-07-13T14:02:37;24.40;29.80
4097;DHT22;2062;50.694;7.246;2023-07-13T14:05:09;24.40;29.80
4097;DHT22;2062;50.694;7.246;2023-07-13T14:07:38;24.40;30.00
4097;DHT22;2062;50.694;7.246;2023-07-13T14:10:12;24.50;30.20
4097;DHT22;2062;50.694;7.246;2023-07-13T14:12:40;24.50;30.50
4097;DHT22;2062;50.694;7.246;2023-07-13T14:15:14;24.60;31.10
4097;DHT22;2062;50.694;7.246;2023-07-13T14:17:44;24.70;30.60
4097;DHT22;2062;50.694;7.246;2023-07-13T14:20:13;24.70;30.70
4097;DHT22;2062;50.694;7.246;2023-07-13T14:22:41;24.80;30.40
4097;DHT22;2062;50.694;7.246;2023-07-13T14:25:10;24.90;30.20
4097;DHT22;2062;50.694;7.246;2023-07-13T14:27:37;24.90;30.10
4097;DHT22;2062;50.694;7.246;2023-07-13T14:30:08;25.00;30.00
4097;DHT22;2062;50.694;7.246;2023-07-13T14:32:38;25.00;30.10
4097;DHT22;2062;50.694;7.246;2023-07-13T14:35:06;25.00;30.00
4097;DHT22;2062;50.694;7.246;2023-07-13T14:37:35;25.00;29.90
4097;DHT22;2062;50.694;7.246;2023-07-13T14:40:11;25.10;29.90
4097;DHT22;2062;50.694;7.246;2023-07-13T14:42:38;25.20;29.90
4097;DHT22;2062;50.694;7.246;2023-07-13T14:45:11;25.20;29.40
4097;DHT22;2062;50.694;7.246;2023-07-13T14:47:38;25.20;29.40
4097;DHT22;2062;50.694;7.246;2023-07-13T14:50:07;25.20;29.40
4097;DHT22;2062;50.694;7.246;2023-07-13T14:52:39;25.30;29.30
4097;DHT22;2062;50.694;7.246;2023-07-13T14:55:10;25.30;29.30
4097;DHT22;2062;50.694;7.246;2023-07-13T14:57:36;25.30;29.30
4097;DHT22;2062;50.694;7.246;2023-07-13T15:00:05;25.40;29.30
4097;DHT22;2062;50.694;7.246;2023-07-13T15:02:34;25.40;29.20
4097;DHT22;2062;50.694;7.246;2023-07-13T15:05:11;25.50;29.00
4097;DHT22;2062;50.694;7.246;2023-07-13T15:07:40;25.50;29.10
4097;DHT22;2062;50.694;7.246;2023-07-13T15:10:13;25.50;29.60
4097;DHT22;2062;50.694;7.246;2023-07-13T15:12:40;25.50;29.00
4097;DHT22;2062;50.694;7.246;2023-07-13T15:15:08;25.60;29.10
4097;DHT22;2062;50.694;7.246;2023-07-13T15:17:36;25.60;29.10
4097;DHT22;2062;50.694;7.246;2023-07-13T15:20:12;25.60;28.90
4097;DHT22;2062;50.694;7.246;2023-07-13T15:22:43;25.60;28.90
4097;DHT22;2062;50.694;7.246;2023-07-13T15:25:14;25.60;28.70
4097;DHT22;2062;50.694;7.246;2023-07-13T15:27:41;25.60;29.30
4097;DHT22;2062;50.694;7.246;2023-07-13T15:30:09;25.70;28.50
4097;DHT22;2062;50.694;7.246;2023-07-13T15:32:36;25.60;28.70
4097;DHT22;2062;50.694;7.246;2023-07-13T15:35:04;25.60;28.50
4097;DHT22;2062;50.694;7.246;2023-07-13T15:37:30;25.60;28.50
4097;DHT22;2062;50.694;7.246;2023-07-13T15:39:58;25.60;28.70
4097;DHT22;2062;50.694;7.246;2023-07-13T15:42:25;25.60;28.50
4097;DHT22;2062;50.694;7.246;2023-07-13T15:44:52;25.60;28.60
4097;DHT22;2062;50.694;7.246;2023-07-13T15:47:19;25.60;28.40
4097;DHT22;2062;50.694;7.246;2023-07-13T15:49:46;25.60;28.10
4097;DHT22;2062;50.694;7.246;2023-07-13T15:52:17;25.60;28.00
4097;DHT22;2062;50.694;7.246;2023-07-13T15:54:45;25.60;27.70
4097;DHT22;2062;50.694;7.246;2023-07-13T15:57:15;25.60;27.80
4097;DHT22;2062;50.694;7.246;2023-07-13T15:59:43;25.50;27.60
4097;DHT22;2062;50.694;7.246;2023-07-13T16:02:17;25.50;27.60
4097;DHT22;2062;50.694;7.246;2023-07-13T16:04:44;25.50;27.40
4097;DHT22;2062;50.694;7.246;2023-07-13T16:07:14;25.40;27.90
4097;DHT22;2062;50.694;7.246;2023-07-13T16:09:43;25.40;27.70
4097;DHT22;2062;50.694;7.246;2023-07-13T16:12:11;25.30;27.80
4097;DHT22;2062;50.694;7.246;2023-07-13T16:14:40;25.30;27.90